Pagrindinis puslapis
METAR-TAF:

METAR-TAF

Oro uostai :

Leeming, Anglija

platuma: 54-18N, ilguma: 001-32W, Aukštis: 40 m

Dabartinis oras

Ataskaita buvo paskelbta 15 minutes, ne 12:50 UTC
Vėjas 13 kt iš Pietų/Pietvakarių
Temperatūra 6°C
Drėgmė 75%
Slėgis 1013 hPa
Matomumas 10 km arba daugiau
Su prošvaistėmis ne aukštis 2100 ft
Apsiniaukę ne aukštis 9000 ft

METAR: EGXE 191250Z 21013KT 9999 BKN021 OVC090 06/02 Q1013 TEMPO FEW020 RMK WHT TEMPO BLU

Laikas: 13:05 (13:05 UTC)

Prognozė

Ataskaita buvo paskelbta 2 valandos ir 21 minutes, ne 10:44 UTC
Prognozė galioja nuo 19 metu 12 UTC su 19 metu 19 UTC
Vėjas 12 kt iš Pietų
Matomumas 10 km arba daugiau
Mažai debesys ne aukštis 2000 ft
Tapsmas
nuo 19 metu 13 UTC su 19 metu 16 UTC
Su prošvaistėmis ne aukštis 1600 ft
Tikimybė 40% :
Laikinai
nuo 19 metu 16 UTC su 19 metu 19 UTC
Su prošvaistėmis ne aukštis 2500 ft

TAF: EGXE 191044Z 1912/1919 19012KT 9999 FEW020 BECMG 1913/1916 BKN016 PROB40 TEMPO 1916/1919 BKN025

Orai ataskaitas ir orų prognozės (METAR, TAF).

turimą stotys yra geltonos ir raudonos taškus žemėlapyje.

Perkelti pele per norėdami pamatyti stoties vardą.

Tada spustelėkite, norėdami matyti oro stebėjimo ir prognozės.

Norėdami pakeisti žemėlapį: spustelėkite ant žalios mygtukų su juodo kryžiaus žemyn,; žalią mygtuką su brūkšneliu, jei norite nutolinti; arba žalių rodyklių gretimoms žemėlapius.


METAR-TAF: